createdAt,value
2018-09-29T00:01:30.622Z,99488.63
2018-09-29T00:03:58.509Z,99492.85
2018-09-29T00:06:26.393Z,99503.02
2018-09-29T00:08:53.701Z,99485.22
2018-09-29T00:11:21.577Z,99506.75
2018-09-29T00:14:24.581Z,99509.33
2018-09-29T00:16:52.590Z,99513.37
2018-09-29T00:19:19.859Z,99519.56
2018-09-29T00:21:47.745Z,99519.02
2018-09-29T00:26:43.942Z,99503.76
2018-09-29T00:29:11.657Z,99505.09
2018-09-29T00:31:39.301Z,99511.25
2018-09-29T00:34:06.976Z,99509.62
2018-09-29T00:36:34.401Z,99506.43
2018-09-29T00:39:02.346Z,99505.09
2018-09-29T00:41:30.094Z,99502.94
2018-09-29T00:43:57.870Z,99506.92
2018-09-29T00:46:25.926Z,99508.27
2018-09-29T00:48:53.761Z,99512.84
2018-09-29T00:51:21.592Z,99505.59
2018-09-29T00:53:50.299Z,99502.62
2018-09-29T00:56:17.985Z,99510.66
2018-09-29T00:58:45.528Z,99508.27
2018-09-29T01:01:13.209Z,99509.05
2018-09-29T01:03:40.973Z,99506.09
2018-09-29T01:06:08.722Z,99503.41
2018-09-29T01:08:37.178Z,99502.08
2018-09-29T01:11:05.195Z,99491.84
2018-09-29T01:13:33.050Z,99501.54
2018-09-29T01:16:00.777Z,99504.21
2018-09-29T01:18:28.646Z,99506.88
2018-09-29T01:20:56.550Z,99499.14
2018-09-29T01:23:24.186Z,99496.96
2018-09-29T01:25:51.940Z,99490.02
2018-09-29T01:28:19.722Z,99490.29
2018-09-29T01:30:47.530Z,99486.02
2018-09-29T01:33:15.201Z,99468.58
2018-09-29T01:35:43.166Z,99463.86
2018-09-29T01:38:10.762Z,99473.75
2018-09-29T01:40:38.590Z,99476.37
2018-09-29T01:43:06.525Z,99473.70
2018-09-29T01:45:33.753Z,99478.27
2018-09-29T01:48:01.702Z,99467.84
2018-09-29T01:50:29.562Z,99459.58
2018-09-29T01:52:57.360Z,99455.31
2018-09-29T01:55:25.046Z,99449.40
2018-09-29T01:57:52.444Z,99450.71
2018-09-29T02:00:20.190Z,99442.19
2018-09-29T02:02:48.018Z,99444.08
2018-09-29T02:05:16.055Z,99440.32
2018-09-29T02:07:43.965Z,99444.04
2018-09-29T02:10:11.661Z,99420.16
2018-09-29T02:12:39.300Z,99422.85
2018-09-29T02:17:34.196Z,99441.10
2018-09-29T02:20:02.006Z,99437.61
2018-09-29T02:22:29.938Z,99431.44
2018-09-29T02:24:57.177Z,99440.53
2018-09-29T02:27:25.170Z,99442.19
2018-09-29T02:29:52.982Z,99437.86
2018-09-29T02:32:20.719Z,99445.37
2018-09-29T02:37:16.058Z,99461.39
2018-09-29T02:39:44.086Z,99462.20
2018-09-29T02:42:11.773Z,99457.63
2018-09-29T02:44:39.912Z,99457.36
2018-09-29T02:47:07.734Z,99450.88
2018-09-29T02:49:35.577Z,99445.59
2018-09-29T02:52:03.301Z,99445.55
2018-09-29T02:54:31.198Z,99425.88
2018-09-29T02:56:58.573Z,99449.53
2018-09-29T02:59:26.623Z,99454.62
2018-09-29T03:01:54.514Z,99456.75
2018-09-29T03:04:22.329Z,99454.34
2018-09-29T03:06:51.549Z,99455.69
2018-09-29T03:09:20.314Z,99455.13
2018-09-29T03:11:48.046Z,99454.62
2018-09-29T03:14:15.946Z,99444.58
2018-09-29T03:16:43.805Z,99452.74
2018-09-29T03:19:12.073Z,99455.11
2018-09-29T03:21:39.778Z,99460.18
2018-09-29T03:24:07.590Z,99457.27
2018-09-29T03:26:35.470Z,99459.91
2018-09-29T03:29:03.391Z,99460.10
2018-09-29T03:31:31.235Z,99468.41
2018-09-29T03:33:59.054Z,99467.34
2018-09-29T03:36:26.954Z,99472.11
2018-09-29T03:38:54.807Z,99471.27
2018-09-29T03:41:22.731Z,99466.78
2018-09-29T03:43:50.580Z,99462.50
2018-09-29T03:46:18.469Z,99467.27
2018-09-29T03:49:38.588Z,99466.48
2018-09-29T03:52:06.366Z,99462.25
2018-09-29T03:54:34.030Z,99465.94
2018-09-29T03:57:01.951Z,99467.00
2018-09-29T03:59:29.895Z,99467.79
2018-09-29T04:01:57.664Z,99469.67
2018-09-29T04:04:25.467Z,99460.33
2018-09-29T04:06:53.282Z,99457.63
2018-09-29T04:09:20.994Z,99457.66
2018-09-29T04:11:48.758Z,99457.88
2018-09-29T04:14:16.586Z,99456.05
2018-09-29T04:16:44.450Z,99455.97
2018-09-29T04:19:12.490Z,99460.28
2018-09-29T04:21:48.806Z,99469.89
2018-09-29T04:24:17.470Z,99456.70
2018-09-29T04:26:45.181Z,99466.16
2018-09-29T04:29:14.188Z,99463.98
2018-09-29T04:31:42.398Z,99467.44
2018-09-29T04:34:10.677Z,99465.31
2018-09-29T04:36:38.466Z,99469.56
2018-09-29T04:39:09.087Z,99476.78
2018-09-29T04:41:37.546Z,99474.60
2018-09-29T04:44:05.509Z,99474.60
2018-09-29T04:46:33.301Z,99476.78
2018-09-29T04:49:00.999Z,99483.72
2018-09-29T04:51:28.913Z,99481.05
2018-09-29T04:53:56.671Z,99486.39
2018-09-29T04:56:24.306Z,99487.45
2018-09-29T04:58:52.014Z,99483.72
2018-09-29T05:01:19.905Z,99489.06
2018-09-29T05:03:47.643Z,99478.82
2018-09-29T05:06:15.305Z,99494.39
2018-09-29T05:08:42.996Z,99492.48
2018-09-29T05:11:10.912Z,99488.21
2018-09-29T05:13:38.666Z,99483.72
2018-09-29T05:16:06.849Z,99491.40
2018-09-29T05:18:34.714Z,99493.82
2018-09-29T05:21:02.874Z,99492.30
2018-09-29T05:23:30.906Z,99501.91
2018-09-29T05:25:58.826Z,99495.45
2018-09-29T05:28:26.639Z,99490.13
2018-09-29T05:30:54.441Z,99498.64
2018-09-29T05:33:22.186Z,99496.22
2018-09-29T05:35:50.055Z,99505.28
2018-09-29T05:38:17.849Z,99502.64
2018-09-29T05:40:45.659Z,99503.16
2018-09-29T05:43:13.485Z,99500.22
2018-09-29T05:45:41.172Z,99489.98
2018-09-29T05:48:08.811Z,99501.83
2018-09-29T05:50:36.611Z,99500.25
2018-09-29T05:53:04.422Z,99501.15
2018-09-29T05:55:32.204Z,99499.16
2018-09-29T05:57:59.966Z,99505.07
2018-09-29T06:00:27.725Z,99502.34
2018-09-29T06:02:55.897Z,99501.80
2018-09-29T06:05:23.736Z,99499.38
2018-09-29T06:07:51.489Z,99509.31
2018-09-29T06:10:19.196Z,99498.05
2018-09-29T06:12:47.036Z,99498.05
2018-09-29T06:15:14.382Z,99500.71
2018-09-29T06:17:42.038Z,99502.38
2018-09-29T06:20:10.014Z,99508.23
2018-09-29T06:22:37.395Z,99509.83
2018-09-29T06:25:05.183Z,99507.41
2018-09-29T06:27:32.768Z,99514.66
2018-09-29T06:30:26.581Z,99512.50
2018-09-29T06:32:54.490Z,99517.34
2018-09-29T06:35:22.195Z,99517.84
2018-09-29T06:37:49.758Z,99519.04
2018-09-29T06:40:17.590Z,99520.62
2018-09-29T06:42:45.597Z,99523.17
2018-09-29T06:45:14.014Z,99532.27
2018-09-29T06:47:42.059Z,99532.60
2018-09-29T06:50:09.906Z,99531.32
2018-09-29T06:52:37.670Z,99535.63
2018-09-29T06:55:05.544Z,99530.80
2018-09-29T06:57:33.361Z,99532.47
2018-09-29T07:00:01.067Z,99534.97
2018-09-29T07:02:28.442Z,99539.66
2018-09-29T07:04:56.345Z,99535.77
2018-09-29T07:07:24.765Z,99538.44
2018-09-29T07:09:53.553Z,99536.86
2018-09-29T07:12:21.394Z,99535.80
2018-09-29T07:14:49.149Z,99523.67
2018-09-29T07:17:17.006Z,99540.15
2018-09-29T07:22:11.858Z,99542.66
2018-09-29T07:24:40.472Z,99538.19
2018-09-29T07:27:08.209Z,99538.44
2018-09-29T07:29:36.012Z,99542.55
2018-09-29T07:32:03.873Z,99548.43
2018-09-29T07:34:31.677Z,99549.77
2018-09-29T07:36:59.582Z,99511.58
2018-09-29T07:39:27.390Z,99550.58
2018-09-29T07:41:55.073Z,99545.02
2018-09-29T07:44:22.763Z,99542.68
2018-09-29T07:46:50.671Z,99547.53
2018-09-29T07:49:18.474Z,99544.09
2018-09-29T07:51:46.454Z,99545.59
2018-09-29T07:54:14.178Z,99538.08
2018-09-29T07:56:41.985Z,99550.94
2018-09-29T07:59:09.846Z,99539.33
2018-09-29T08:01:37.759Z,99546.52
2018-09-29T08:04:05.625Z,99539.28
2018-09-29T08:06:33.370Z,99543.81
2018-09-29T08:09:01.007Z,99469.15
2018-09-29T08:11:28.931Z,99537.27
2018-09-29T08:13:56.773Z,99531.66
2018-09-29T08:16:24.617Z,99516.34
2018-09-29T08:18:51.858Z,99518.50
2018-09-29T08:21:19.726Z,99516.93
2018-09-29T08:23:47.810Z,99517.30
2018-09-29T08:26:15.626Z,99529.23
2018-09-29T08:28:43.369Z,99522.48
2018-09-29T08:31:10.626Z,99528.45
2018-09-29T08:34:27.586Z,99526.80
2018-09-29T08:38:06.752Z,99514.80
2018-09-29T08:40:34.630Z,99520.39
2018-09-29T08:43:02.412Z,99513.74
2018-09-29T08:45:30.549Z,99506.64
2018-09-29T08:47:58.358Z,99501.27
2018-09-29T08:50:26.473Z,99506.64
2018-09-29T08:52:54.230Z,99513.24
2018-09-29T08:55:21.946Z,99505.88
2018-09-29T08:57:49.755Z,99507.00
2018-09-29T09:00:17.595Z,99486.38
2018-09-29T09:02:45.510Z,99491.46
2018-09-29T09:05:13.207Z,99495.91
2018-09-29T09:07:40.976Z,99491.61
2018-09-29T09:10:08.777Z,99494.12
2018-09-29T09:12:36.575Z,99487.67
2018-09-29T09:15:04.417Z,99485.16
2018-09-29T09:17:32.067Z,99485.68
2018-09-29T09:19:59.969Z,99478.14
2018-09-29T09:22:27.665Z,99482.56
2018-09-29T09:24:55.404Z,99488.61
2018-09-29T09:27:23.405Z,99479.13
2018-09-29T09:29:51.260Z,99477.20
2018-09-29T09:32:18.957Z,99479.59
2018-09-29T09:34:46.886Z,99475.69
2018-09-29T09:37:14.674Z,99471.75
2018-09-29T09:39:42.382Z,99470.70
2018-09-29T09:42:10.207Z,99474.52
2018-09-29T09:44:37.997Z,99466.25
2018-09-29T09:47:06.107Z,99465.52
2018-09-29T09:49:33.456Z,99462.45
2018-09-29T09:52:01.177Z,99450.77
2018-09-29T09:54:28.938Z,99454.75
2018-09-29T09:56:58.008Z,99424.20
2018-09-29T09:59:25.668Z,99461.16
2018-09-29T10:01:59.547Z,99451.05
2018-09-29T10:04:27.383Z,99455.28
2018-09-29T10:06:55.188Z,99400.44
2018-09-29T10:09:23.054Z,99453.28
2018-09-29T10:11:50.894Z,99458.11
2018-09-29T10:14:18.741Z,99454.14
2018-09-29T10:16:46.587Z,99447.59
2018-09-29T10:19:14.310Z,99438.64
2018-09-29T10:21:42.041Z,99382.39
2018-09-29T10:24:09.924Z,99427.00
2018-09-29T10:26:37.734Z,99432.80
2018-09-29T10:29:05.671Z,99432.60
2018-09-29T10:31:33.626Z,99430.55
2018-09-29T10:34:01.650Z,99428.46
2018-09-29T10:38:05.742Z,99426.23
2018-09-29T10:42:46.594Z,99421.30
2018-09-29T10:45:14.005Z,99420.72
2018-09-29T10:47:41.922Z,99410.91
2018-09-29T10:50:09.721Z,99407.88
2018-09-29T10:52:39.027Z,99375.44
2018-09-29T10:55:06.493Z,99400.03
2018-09-29T10:57:34.205Z,99398.23
2018-09-29T11:00:01.926Z,99397.19
2018-09-29T11:02:29.868Z,99399.99
2018-09-29T11:04:57.908Z,99392.63
2018-09-29T11:07:25.791Z,99390.52
2018-09-29T11:09:53.776Z,99384.63
2018-09-29T11:12:21.754Z,99391.98
2018-09-29T11:14:49.602Z,99383.38
2018-09-29T11:17:17.396Z,99379.00
2018-09-29T11:19:45.198Z,99377.78
2018-09-29T11:22:13.049Z,99380.33
2018-09-29T11:24:41.001Z,99366.94
2018-09-29T11:27:09.542Z,99370.51
2018-09-29T11:29:37.305Z,99360.31
2018-09-29T11:32:05.032Z,99354.44
2018-09-29T11:34:33.217Z,99358.50
2018-09-29T11:37:00.959Z,99345.91
2018-09-29T11:39:29.051Z,99343.30
2018-09-29T11:41:56.697Z,99334.38
2018-09-29T11:44:24.716Z,99326.67
2018-09-29T11:46:53.191Z,99325.84
2018-09-29T11:49:20.864Z,99324.79
2018-09-29T11:51:48.795Z,99319.47
2018-09-29T11:54:16.588Z,99324.16
2018-09-29T11:56:43.770Z,99307.14
2018-09-29T11:59:11.595Z,99299.59
2018-09-29T12:01:39.826Z,99299.59
2018-09-29T12:04:07.029Z,99292.58
2018-09-29T12:06:34.940Z,99298.28
2018-09-29T12:09:02.910Z,99297.42
2018-09-29T12:11:30.757Z,99293.36
2018-09-29T12:13:58.612Z,99281.08
2018-09-29T12:16:26.586Z,99278.25
2018-09-29T12:18:54.513Z,99274.45
2018-09-29T12:21:22.521Z,99245.94
2018-09-29T12:23:50.578Z,99265.50
2018-09-29T12:26:18.679Z,99249.36
2018-09-29T12:28:46.598Z,99253.45
2018-09-29T12:31:14.573Z,99252.30
2018-09-29T12:33:42.424Z,99242.58
2018-09-29T12:36:10.240Z,99246.30
2018-09-29T12:38:38.200Z,99254.88
2018-09-29T12:41:06.052Z,99256.36
2018-09-29T12:43:33.876Z,99244.30
2018-09-29T12:46:01.635Z,99239.74
2018-09-29T12:48:29.846Z,99243.36
2018-09-29T12:53:36.878Z,99233.41
2018-09-29T12:56:04.712Z,99220.60
2018-09-29T12:58:32.930Z,99224.83
2018-09-29T13:01:00.743Z,99224.89
2018-09-29T13:03:28.625Z,99221.25
2018-09-29T13:05:56.322Z,99217.00
2018-09-29T13:08:24.415Z,99210.63
2018-09-29T13:10:52.371Z,99205.67
2018-09-29T13:13:20.067Z,99208.27
2018-09-29T13:15:47.884Z,99208.98
2018-09-29T13:18:15.193Z,99209.84
2018-09-29T13:20:42.967Z,99199.67
2018-09-29T13:23:10.762Z,99198.34
2018-09-29T13:25:38.617Z,99187.13
2018-09-29T13:28:06.566Z,99181.09
2018-09-29T13:30:34.313Z,99184.72
2018-09-29T13:33:02.023Z,99183.21
2018-09-29T13:35:29.877Z,99176.25
2018-09-29T13:37:57.799Z,99169.48
2018-09-29T13:40:25.682Z,99160.02
2018-09-29T13:42:53.318Z,99169.72
2018-09-29T13:45:21.225Z,99171.81
2018-09-29T13:47:49.234Z,99158.75
2018-09-29T13:50:16.933Z,99166.00
2018-09-29T13:52:44.769Z,99157.89
2018-09-29T13:55:12.593Z,99155.08
2018-09-29T13:57:40.321Z,99153.59
2018-09-29T14:00:08.081Z,99147.15
2018-09-29T14:02:36.077Z,99145.09
2018-09-29T14:05:03.863Z,99141.69
2018-09-29T14:07:31.728Z,99142.51
2018-09-29T14:09:59.569Z,99139.76
2018-09-29T14:12:27.741Z,99141.66
2018-09-29T14:14:55.561Z,99138.42
2018-09-29T14:17:22.750Z,99127.70
2018-09-29T14:19:50.778Z,99129.66
2018-09-29T14:22:18.546Z,99128.60
2018-09-29T14:24:46.226Z,99116.05
2018-09-29T14:29:47.718Z,99110.20
2018-09-29T14:32:15.593Z,99107.03
2018-09-29T14:34:43.330Z,99108.50
2018-09-29T14:37:11.039Z,99102.19
2018-09-29T14:39:38.481Z,99096.88
2018-09-29T14:42:06.572Z,99096.89
2018-09-29T14:44:34.306Z,99088.94
2018-09-29T14:47:01.983Z,99091.59
2018-09-29T14:49:29.429Z,99080.93
2018-09-29T14:51:57.175Z,99085.46
2018-09-29T14:54:24.893Z,99092.25
2018-09-29T14:56:52.689Z,99087.05
2018-09-29T14:59:20.462Z,99091.41
2018-09-29T15:01:48.205Z,99083.62
2018-09-29T15:04:15.773Z,99084.35
2018-09-29T15:06:43.591Z,99091.11
2018-09-29T15:09:12.846Z,99091.95
2018-09-29T15:11:41.008Z,99085.47
2018-09-29T15:14:09.609Z,99081.80
2018-09-29T15:16:37.390Z,99080.52
2018-09-29T15:19:05.282Z,99074.72
2018-09-29T15:21:32.993Z,99077.75
2018-09-29T15:24:00.338Z,99067.62
2018-09-29T15:26:28.842Z,99078.42
2018-09-29T15:28:56.913Z,99066.98
2018-09-29T15:31:24.773Z,99064.14
2018-09-29T15:33:52.735Z,99066.16
2018-09-29T15:36:20.822Z,99061.48
2018-09-29T15:38:48.653Z,99057.05
2018-09-29T15:41:16.385Z,99051.02
2018-09-29T15:43:43.771Z,99059.81
2018-09-29T15:46:11.593Z,99051.16
2018-09-29T15:48:39.539Z,99056.87
2018-09-29T15:51:06.769Z,99058.13
2018-09-29T15:53:35.026Z,99055.84
2018-09-29T15:56:02.798Z,99060.73
2018-09-29T15:58:30.676Z,99055.47
2018-09-29T16:00:58.304Z,99059.25
2018-09-29T16:03:25.993Z,99052.16
2018-09-29T16:05:53.653Z,99041.63
2018-09-29T16:08:21.417Z,99018.69
2018-09-29T16:10:49.345Z,99050.45
2018-09-29T16:13:17.256Z,99050.35
2018-09-29T16:15:45.225Z,99050.39
2018-09-29T16:18:12.975Z,99049.16
2018-09-29T16:20:41.044Z,99047.92
2018-09-29T16:23:08.774Z,99047.14
2018-09-29T16:25:36.573Z,99047.92
2018-09-29T16:28:04.585Z,99046.59
2018-09-29T16:30:31.951Z,99043.56
2018-09-29T16:32:59.942Z,99041.75
2018-09-29T16:35:27.750Z,99037.23
2018-09-29T16:37:55.591Z,99045.65
2018-09-29T16:40:23.538Z,99042.10
2018-09-29T16:42:51.533Z,99043.03
2018-09-29T16:45:19.481Z,99043.03
2018-09-29T16:47:47.393Z,99045.95
2018-09-29T16:50:15.169Z,99043.84
2018-09-29T16:52:42.954Z,99049.73
2018-09-29T16:55:10.763Z,99052.03
2018-09-29T16:57:39.215Z,99052.28
2018-09-29T17:00:07.232Z,99053.03
2018-09-29T17:02:35.117Z,99057.92
2018-09-29T17:05:03.190Z,99054.42
2018-09-29T17:07:30.970Z,99061.06
2018-09-29T17:09:59.046Z,99062.87
2018-09-29T17:12:26.877Z,99059.95
2018-09-29T17:14:54.829Z,99060.16
2018-09-29T17:17:22.757Z,99060.91
2018-09-29T17:19:50.674Z,99062.45
2018-09-29T17:22:18.594Z,99061.85
2018-09-29T17:24:46.713Z,99063.73
2018-09-29T17:29:10.645Z,99069.95
2018-09-29T17:31:38.685Z,99074.38
2018-09-29T17:34:06.619Z,99067.95
2018-09-29T17:37:22.830Z,99065.03
2018-09-29T17:39:51.753Z,99078.33
2018-09-29T17:42:20.902Z,99079.17
2018-09-29T17:44:50.552Z,99075.03
2018-09-29T17:47:19.837Z,99079.14
2018-09-29T17:49:49.032Z,99078.87
2018-09-29T17:52:18.796Z,99070.47
2018-09-29T17:54:48.793Z,99086.03
2018-09-29T17:57:18.660Z,99058.68
2018-09-29T17:59:47.801Z,99078.59
2018-09-29T18:02:18.026Z,99082.53
2018-09-29T18:04:47.870Z,99090.36
2018-09-29T18:07:17.646Z,99090.36
2018-09-29T18:09:47.066Z,99091.38
2018-09-29T18:13:23.785Z,99090.98
2018-09-29T18:15:53.638Z,99079.09
2018-09-29T18:18:22.860Z,99089.38
2018-09-29T18:20:53.197Z,99093.86
2018-09-29T18:23:21.877Z,99081.09
2018-09-29T18:25:55.707Z,99083.75
2018-09-29T18:28:24.903Z,99085.21
2018-09-29T18:30:53.749Z,99083.73
2018-09-29T18:33:23.746Z,99082.42
2018-09-29T18:35:52.837Z,99084.58
2018-09-29T18:38:22.534Z,99082.18
2018-09-29T18:40:52.438Z,99086.67
2018-09-29T18:43:21.790Z,99090.73
2018-09-29T18:45:50.939Z,99088.08
2018-09-29T18:48:20.750Z,99096.33
2018-09-29T18:50:49.849Z,99094.98
2018-09-29T18:53:18.846Z,99096.97
2018-09-29T18:55:47.858Z,99096.97
2018-09-29T18:59:54.297Z,99091.95
2018-09-29T19:02:22.006Z,99090.88
2018-09-29T19:04:49.887Z,99087.70
2018-09-29T19:07:17.714Z,99094.41
2018-09-29T19:09:45.578Z,99094.66
2018-09-29T19:12:13.625Z,99085.58
2018-09-29T19:14:41.554Z,99095.49
2018-09-29T19:17:08.769Z,99093.64
2018-09-29T19:19:36.577Z,99092.05
2018-09-29T19:24:44.211Z,99093.33
2018-09-29T19:27:13.693Z,99087.73
2018-09-29T19:29:42.854Z,99086.72
2018-09-29T19:32:11.861Z,99086.47
2018-09-29T19:34:41.069Z,99089.67
2018-09-29T19:37:10.750Z,99081.91
2018-09-29T19:39:39.975Z,99083.81
2018-09-29T19:42:09.180Z,99083.81
2018-09-29T19:44:38.717Z,99086.47
2018-09-29T19:47:07.862Z,99085.16
2018-09-29T19:49:36.893Z,99080.38
2018-09-29T19:52:06.062Z,99074.49
2018-09-29T19:54:35.177Z,99082.80
2018-09-29T19:57:04.696Z,99083.09
2018-09-29T19:59:32.833Z,99080.43
2018-09-29T20:02:05.829Z,99079.09
2018-09-29T20:04:34.906Z,99082.28
2018-09-29T20:07:04.555Z,99080.43
2018-09-29T20:12:10.470Z,99077.30
2018-09-29T20:14:39.602Z,99078.61
2018-09-29T20:17:07.791Z,99076.21
2018-09-29T20:19:36.908Z,99073.56
2018-09-29T20:22:09.781Z,99076.48
2018-09-29T20:24:38.870Z,99078.89
2018-09-29T20:27:08.775Z,99076.55
2018-09-29T20:29:37.927Z,99074.65
2018-09-29T20:34:21.669Z,99067.11
2018-09-29T20:36:49.542Z,99078.91
2018-09-29T20:39:17.390Z,99075.22
2018-09-29T20:41:45.062Z,99078.15
2018-09-29T20:44:13.349Z,99079.22
2018-09-29T20:46:41.056Z,99069.08
2018-09-29T20:49:09.046Z,99072.33
2018-09-29T20:51:37.011Z,99036.12
2018-09-29T20:54:05.005Z,99074.42
2018-09-29T20:56:32.523Z,99057.30
2018-09-29T20:59:00.277Z,99070.97
2018-09-29T21:01:28.300Z,99073.64
2018-09-29T21:03:57.823Z,99072.89
2018-09-29T21:06:27.135Z,99071.38
2018-09-29T21:08:58.754Z,99072.50
2018-09-29T21:11:27.925Z,99079.00
2018-09-29T21:15:23.169Z,99075.02
2018-09-29T21:20:37.203Z,99071.73
2018-09-29T21:25:48.622Z,99062.41
2018-09-29T21:28:17.844Z,99060.84
2018-09-29T21:30:46.921Z,99058.52
2018-09-29T21:33:16.054Z,99059.59
2018-09-29T21:36:24.846Z,99059.11
2018-09-29T21:38:54.124Z,99055.69
2018-09-29T21:41:23.777Z,99048.45
2018-09-29T21:43:53.029Z,99053.35
2018-09-29T21:46:21.729Z,99056.53
2018-09-29T21:48:50.903Z,99051.84
2018-09-29T21:51:20.779Z,99052.59
2018-09-29T21:53:51.007Z,99055.59
2018-09-29T21:56:19.842Z,99058.52
2018-09-29T21:58:48.833Z,99055.45
2018-09-29T22:01:23.938Z,99049.88
2018-09-29T22:03:53.742Z,99049.13
2018-09-29T22:06:23.705Z,99047.59
2018-09-29T22:08:53.049Z,99046.02
2018-09-29T22:11:21.820Z,99047.87
2018-09-29T22:16:17.783Z,99026.04
2018-09-29T22:18:46.877Z,99041.59
2018-09-29T22:21:16.821Z,99043.19
2018-09-29T22:23:46.220Z,99041.34
2018-09-29T22:26:15.934Z,99036.78
2018-09-29T22:28:45.806Z,99024.57
2018-09-29T22:31:15.424Z,99031.49
2018-09-29T22:33:44.862Z,99030.88
2018-09-29T22:36:13.934Z,99021.59
2018-09-29T22:38:43.942Z,99014.94
2018-09-29T22:41:17.927Z,99025.45
2018-09-29T22:43:46.203Z,99019.84
2018-09-29T22:46:15.767Z,99018.73
2018-09-29T22:48:45.685Z,99015.69
2018-09-29T22:51:16.330Z,99022.11
2018-09-29T22:53:45.793Z,99015.53
2018-09-29T22:56:15.588Z,99005.39
2018-09-29T22:58:44.913Z,99019.86
2018-09-29T23:01:14.097Z,99010.79
2018-09-29T23:03:43.743Z,99007.33
2018-09-29T23:06:12.954Z,99003.02
2018-09-29T23:08:42.794Z,99008.11
2018-09-29T23:12:18.877Z,99003.33
2018-09-29T23:14:48.225Z,99000.10
2018-09-29T23:17:16.857Z,98992.67
2018-09-29T23:19:46.757Z,98992.67
2018-09-29T23:22:15.942Z,98993.95
2018-09-29T23:24:45.766Z,98957.63
2018-09-29T23:27:15.674Z,98987.42
2018-09-29T23:29:44.878Z,98988.77
2018-09-29T23:32:14.656Z,98986.87
2018-09-29T23:34:43.877Z,98981.27
2018-09-29T23:37:46.882Z,98989.53
2018-09-29T23:40:16.746Z,98978.09
2018-09-29T23:42:46.218Z,98983.68
2018-09-29T23:45:15.926Z,98977.00
2018-09-29T23:47:45.936Z,98981.28
2018-09-29T23:50:15.874Z,98968.44
2018-09-29T23:52:45.870Z,98976.19
2018-09-29T23:55:15.754Z,98975.38
2018-09-29T23:57:44.937Z,98969.52
